Dallas Love Field
KDAL : now visible

Airfield :











YOU CAN JOIN US ON...

 
LOGIN :

Register | Disclaimer

   EN    FR    IT 

 









Legend :    VFR   Marginal VFR   IFR   Intensive IFR   Very Intensive IFR
Visi :
Ceiling :
>= 8 km
>= 3000ft
5 to 8 km
1000 to 3000 ft
1500m to 5 km
500 to 1000 ft
800 to 1500m
200 to 500 ft
< 800m
< 200 ft
Symbols :   Thunderstorms  Fog  Heavy snow  Heavy precipitations  Wind > 20 kt






- Airport Elevation : 487 ft
- IATA code : DAL


KDAL - Dallas Love Field

CURRENT METAR :
  • 231953Z 23010KT 10SM BKN046TCU BKN060 34/22 A3005 RMK AO2 SLP168 TCU ALQDS T03440222

EXPIRED METARs :
  • 231853Z 17011G18KT 10SM BKN045 33/22 A3007 RMK AO2 SLP175 MDT CU ALQDS T03330222
  • 231753Z 21008G16KT 10SM BKN040TCU BKN055 32/22 A3011 RMK AO2 SLP187 TCU ALQDS T03170217 10317 20256 58010

TAF KDAL
Valid from the 23 at 18:00 until the 24 at 18:00 UTC


231736Z 2318/2418 20012G22KT P6SM BKN040
FM240200 17011G21KT P6SM FEW040
KZFW FIR / North America



MET'MAP, your aeronautical weather chart ! - Copyright ORBIFLY December 2007 - Disclaimer

ORBIFLY MET'MAP TEAM :

Programming & Development : Alexandra Zaïnal
Concept & original design : Baudouin d'Aumeries
Assistance for programming : Marc-Olivier Méhu
Technical & hardware support : Manuel Goepfert

Contact : metmap@orbifly.com




SOURCES & CREDITS :

   NOAA       Earth
Advisory